YMBT weather

Mount Beauty Airport
Mount Beauty, Victoria, Australia

Public forecast

Using degrees Celsius for public forecast. Weather courtesy of forecast.io.

Closest aviation weather report (METAR) to Mount Beauty Airport

Closest report is Albury Airport, 41.1 nm (76.2 km) NNW. Retrieved 2020/02/29 09:00 UTC (12 minutes ago):

YMAY 290900Z AUTO 26007KT 9999 // NCD 25/08 Q1011

Closest aviation forecast (TAF) to Mount Beauty Airport

Forecast is more than 6 hours old.

Closest forecast is Wangaratta Airport, 45.7 nm (84.6 km) WNW. Retrieved 2020-02-29 02:03 UTC (7 hours ago):

TAF YWGT 290054Z 2902/2914 35008KT CAVOK FM290400 28008KT CAVOK FM291200 19005KT CAVOK